sensor_id;sensor_type;location;lat;lon;timestamp;P1;durP1;ratioP1;P2;durP2;ratioP2
44147;SDS011;29810;55.848;37.368;2023-03-08T00:01:44;21.48;;;11.15;;
44147;SDS011;29810;55.848;37.368;2023-03-08T00:04:45;17.00;;;9.98;;
44147;SDS011;29810;55.848;37.368;2023-03-08T00:07:47;17.45;;;10.25;;
44147;SDS011;29810;55.848;37.368;2023-03-08T00:10:49;18.00;;;10.05;;
44147;SDS011;29810;55.848;37.368;2023-03-08T00:13:50;17.27;;;10.65;;
44147;SDS011;29810;55.848;37.368;2023-03-08T00:16:52;20.73;;;10.43;;
44147;SDS011;29810;55.848;37.368;2023-03-08T00:19:55;18.10;;;10.40;;
44147;SDS011;29810;55.848;37.368;2023-03-08T00:22:57;17.80;;;9.90;;
44147;SDS011;29810;55.848;37.368;2023-03-08T00:25:58;19.92;;;10.75;;
44147;SDS011;29810;55.848;37.368;2023-03-08T00:29:01;17.90;;;10.73;;
44147;SDS011;29810;55.848;37.368;2023-03-08T00:32:02;19.77;;;11.00;;
44147;SDS011;29810;55.848;37.368;2023-03-08T00:35:04;18.23;;;10.45;;
44147;SDS011;29810;55.848;37.368;2023-03-08T00:38:05;17.60;;;10.52;;
44147;SDS011;29810;55.848;37.368;2023-03-08T00:41:07;16.98;;;10.75;;
44147;SDS011;29810;55.848;37.368;2023-03-08T00:44:08;18.33;;;10.75;;
44147;SDS011;29810;55.848;37.368;2023-03-08T00:47:10;19.10;;;10.85;;
44147;SDS011;29810;55.848;37.368;2023-03-08T00:50:12;18.40;;;10.40;;
44147;SDS011;29810;55.848;37.368;2023-03-08T00:53:14;20.33;;;10.60;;
44147;SDS011;29810;55.848;37.368;2023-03-08T00:56:16;16.87;;;10.75;;
44147;SDS011;29810;55.848;37.368;2023-03-08T00:59:19;19.95;;;11.38;;
44147;SDS011;29810;55.848;37.368;2023-03-08T01:02:20;21.55;;;11.82;;
44147;SDS011;29810;55.848;37.368;2023-03-08T01:05:22;18.33;;;11.82;;
44147;SDS011;29810;55.848;37.368;2023-03-08T01:08:25;20.02;;;11.80;;
44147;SDS011;29810;55.848;37.368;2023-03-08T01:11:27;19.95;;;11.63;;
44147;SDS011;29810;55.848;37.368;2023-03-08T01:14:28;20.60;;;11.27;;
44147;SDS011;29810;55.848;37.368;2023-03-08T01:17:30;20.52;;;11.30;;
44147;SDS011;29810;55.848;37.368;2023-03-08T01:20:32;18.65;;;11.23;;
44147;SDS011;29810;55.848;37.368;2023-03-08T01:23:34;18.65;;;10.77;;
44147;SDS011;29810;55.848;37.368;2023-03-08T01:26:35;19.58;;;10.98;;
44147;SDS011;29810;55.848;37.368;2023-03-08T01:29:37;19.35;;;11.20;;
44147;SDS011;29810;55.848;37.368;2023-03-08T01:32:39;18.45;;;11.38;;
44147;SDS011;29810;55.848;37.368;2023-03-08T01:35:40;20.48;;;11.65;;
44147;SDS011;29810;55.848;37.368;2023-03-08T01:38:42;22.45;;;12.13;;
44147;SDS011;29810;55.848;37.368;2023-03-08T01:41:45;21.85;;;11.45;;
44147;SDS011;29810;55.848;37.368;2023-03-08T01:44:56;25.37;;;12.13;;
44147;SDS011;29810;55.848;37.368;2023-03-08T01:48:06;24.55;;;11.75;;
44147;SDS011;29810;55.848;37.368;2023-03-08T01:51:08;24.35;;;11.98;;
44147;SDS011;29810;55.848;37.368;2023-03-08T01:54:15;31.98;;;12.10;;
44147;SDS011;29810;55.848;37.368;2023-03-08T01:57:22;33.50;;;12.32;;
44147;SDS011;29810;55.848;37.368;2023-03-08T02:00:27;44.58;;;13.38;;
44147;SDS011;29810;55.848;37.368;2023-03-08T02:03:29;32.42;;;12.77;;
44147;SDS011;29810;55.848;37.368;2023-03-08T02:06:30;31.00;;;13.18;;
44147;SDS011;29810;55.848;37.368;2023-03-08T02:09:32;27.67;;;12.30;;
44147;SDS011;29810;55.848;37.368;2023-03-08T02:12:34;26.83;;;12.73;;
44147;SDS011;29810;55.848;37.368;2023-03-08T02:15:36;33.20;;;12.23;;
44147;SDS011;29810;55.848;37.368;2023-03-08T02:18:56;46.58;;;13.93;;
44147;SDS011;29810;55.848;37.368;2023-03-08T02:22:09;30.42;;;13.48;;
44147;SDS011;29810;55.848;37.368;2023-03-08T02:25:17;44.83;;;14.90;;
44147;SDS011;29810;55.848;37.368;2023-03-08T02:28:21;35.50;;;14.63;;
44147;SDS011;29810;55.848;37.368;2023-03-08T02:31:26;45.22;;;14.93;;
44147;SDS011;29810;55.848;37.368;2023-03-08T02:34:28;34.92;;;14.90;;
44147;SDS011;29810;55.848;37.368;2023-03-08T02:37:30;30.40;;;15.57;;
44147;SDS011;29810;55.848;37.368;2023-03-08T02:40:32;36.78;;;15.50;;
44147;SDS011;29810;55.848;37.368;2023-03-08T02:43:34;29.92;;;14.98;;
44147;SDS011;29810;55.848;37.368;2023-03-08T02:46:35;31.35;;;15.13;;
44147;SDS011;29810;55.848;37.368;2023-03-08T02:49:37;31.05;;;14.13;;
44147;SDS011;29810;55.848;37.368;2023-03-08T02:52:38;34.75;;;14.70;;
44147;SDS011;29810;55.848;37.368;2023-03-08T02:55:40;30.88;;;14.93;;
44147;SDS011;29810;55.848;37.368;2023-03-08T02:58:42;32.58;;;14.23;;
44147;SDS011;29810;55.848;37.368;2023-03-08T03:01:44;32.85;;;15.38;;
44147;SDS011;29810;55.848;37.368;2023-03-08T03:04:45;36.05;;;14.40;;
44147;SDS011;29810;55.848;37.368;2023-03-08T03:07:47;33.42;;;15.13;;
44147;SDS011;29810;55.848;37.368;2023-03-08T03:10:49;31.35;;;14.50;;
44147;SDS011;29810;55.848;37.368;2023-03-08T03:13:57;31.45;;;14.73;;
44147;SDS011;29810;55.848;37.368;2023-03-08T03:17:00;31.08;;;15.23;;
44147;SDS011;29810;55.848;37.368;2023-03-08T03:20:03;30.62;;;14.13;;
44147;SDS011;29810;55.848;37.368;2023-03-08T03:23:09;31.27;;;14.70;;
44147;SDS011;29810;55.848;37.368;2023-03-08T03:26:13;27.95;;;14.48;;
44147;SDS011;29810;55.848;37.368;2023-03-08T03:29:19;27.50;;;13.70;;
44147;SDS011;29810;55.848;37.368;2023-03-08T03:32:23;30.67;;;14.82;;
44147;SDS011;29810;55.848;37.368;2023-03-08T03:35:25;28.33;;;15.27;;
44147;SDS011;29810;55.848;37.368;2023-03-08T03:38:27;33.80;;;16.27;;
44147;SDS011;29810;55.848;37.368;2023-03-08T03:41:29;29.20;;;14.50;;
44147;SDS011;29810;55.848;37.368;2023-03-08T03:44:32;27.87;;;14.13;;
44147;SDS011;29810;55.848;37.368;2023-03-08T03:47:35;26.23;;;13.70;;
44147;SDS011;29810;55.848;37.368;2023-03-08T03:50:38;27.52;;;14.20;;
44147;SDS011;29810;55.848;37.368;2023-03-08T03:53:40;24.42;;;12.52;;
44147;SDS011;29810;55.848;37.368;2023-03-08T03:56:41;29.63;;;14.68;;
44147;SDS011;29810;55.848;37.368;2023-03-08T03:59:43;26.23;;;13.48;;
44147;SDS011;29810;55.848;37.368;2023-03-08T04:02:45;23.90;;;13.30;;
44147;SDS011;29810;55.848;37.368;2023-03-08T04:05:47;24.42;;;12.57;;
44147;SDS011;29810;55.848;37.368;2023-03-08T04:08:53;26.80;;;12.70;;
44147;SDS011;29810;55.848;37.368;2023-03-08T04:11:58;28.38;;;13.23;;
44147;SDS011;29810;55.848;37.368;2023-03-08T04:15:03;25.55;;;12.95;;
44147;SDS011;29810;55.848;37.368;2023-03-08T04:18:06;24.75;;;12.43;;
44147;SDS011;29810;55.848;37.368;2023-03-08T04:21:17;23.42;;;12.60;;
44147;SDS011;29810;55.848;37.368;2023-03-08T04:24:20;23.95;;;12.25;;
44147;SDS011;29810;55.848;37.368;2023-03-08T04:27:24;38.40;;;12.93;;
44147;SDS011;29810;55.848;37.368;2023-03-08T04:30:26;34.58;;;12.85;;
44147;SDS011;29810;55.848;37.368;2023-03-08T04:33:30;25.20;;;12.80;;
44147;SDS011;29810;55.848;37.368;2023-03-08T04:36:32;24.75;;;13.20;;
44147;SDS011;29810;55.848;37.368;2023-03-08T04:39:34;28.35;;;12.98;;
44147;SDS011;29810;55.848;37.368;2023-03-08T04:42:36;28.30;;;13.77;;
44147;SDS011;29810;55.848;37.368;2023-03-08T04:45:38;33.92;;;14.23;;
44147;SDS011;29810;55.848;37.368;2023-03-08T04:48:41;31.12;;;14.35;;
44147;SDS011;29810;55.848;37.368;2023-03-08T04:51:45;30.88;;;14.02;;
44147;SDS011;29810;55.848;37.368;2023-03-08T04:54:47;28.50;;;13.82;;
44147;SDS011;29810;55.848;37.368;2023-03-08T04:57:50;28.87;;;13.85;;
44147;SDS011;29810;55.848;37.368;2023-03-08T05:00:52;27.75;;;13.75;;
44147;SDS011;29810;55.848;37.368;2023-03-08T05:03:54;27.08;;;13.88;;
44147;SDS011;29810;55.848;37.368;2023-03-08T05:06:58;34.95;;;15.55;;
44147;SDS011;29810;55.848;37.368;2023-03-08T05:10:01;30.60;;;14.25;;
44147;SDS011;29810;55.848;37.368;2023-03-08T05:13:04;32.63;;;14.25;;
44147;SDS011;29810;55.848;37.368;2023-03-08T05:16:09;29.15;;;14.43;;
44147;SDS011;29810;55.848;37.368;2023-03-08T05:19:18;28.52;;;14.55;;
44147;SDS011;29810;55.848;37.368;2023-03-08T05:22:29;27.15;;;14.00;;
44147;SDS011;29810;55.848;37.368;2023-03-08T05:25:31;24.63;;;13.68;;
44147;SDS011;29810;55.848;37.368;2023-03-08T05:28:35;27.27;;;14.30;;
44147;SDS011;29810;55.848;37.368;2023-03-08T05:31:40;27.42;;;14.32;;
44147;SDS011;29810;55.848;37.368;2023-03-08T05:35:53;24.17;;;13.38;;
44147;SDS011;29810;55.848;37.368;2023-03-08T05:39:30;24.40;;;12.68;;
44147;SDS011;29810;55.848;37.368;2023-03-08T05:42:33;28.15;;;14.00;;
44147;SDS011;29810;55.848;37.368;2023-03-08T05:45:36;28.73;;;14.13;;
44147;SDS011;29810;55.848;37.368;2023-03-08T05:48:39;30.00;;;14.32;;
44147;SDS011;29810;55.848;37.368;2023-03-08T05:51:41;30.00;;;14.87;;
44147;SDS011;29810;55.848;37.368;2023-03-08T05:54:44;28.33;;;13.60;;
44147;SDS011;29810;55.848;37.368;2023-03-08T05:57:50;31.83;;;14.75;;
44147;SDS011;29810;55.848;37.368;2023-03-08T06:00:52;28.83;;;14.32;;
44147;SDS011;29810;55.848;37.368;2023-03-08T06:03:55;28.20;;;14.95;;
44147;SDS011;29810;55.848;37.368;2023-03-08T06:06:58;29.12;;;14.73;;
44147;SDS011;29810;55.848;37.368;2023-03-08T06:10:02;28.52;;;14.70;;
44147;SDS011;29810;55.848;37.368;2023-03-08T06:13:04;30.70;;;14.38;;
44147;SDS011;29810;55.848;37.368;2023-03-08T06:16:06;31.08;;;15.52;;
44147;SDS011;29810;55.848;37.368;2023-03-08T06:19:08;31.52;;;15.75;;
44147;SDS011;29810;55.848;37.368;2023-03-08T06:22:11;31.17;;;15.82;;
44147;SDS011;29810;55.848;37.368;2023-03-08T06:25:12;29.87;;;16.08;;
44147;SDS011;29810;55.848;37.368;2023-03-08T06:28:14;28.85;;;16.20;;
44147;SDS011;29810;55.848;37.368;2023-03-08T06:31:16;27.92;;;16.10;;
44147;SDS011;29810;55.848;37.368;2023-03-08T06:34:19;27.75;;;15.73;;
44147;SDS011;29810;55.848;37.368;2023-03-08T06:37:23;27.25;;;15.43;;
44147;SDS011;29810;55.848;37.368;2023-03-08T06:40:25;23.30;;;14.77;;
44147;SDS011;29810;55.848;37.368;2023-03-08T06:43:28;26.90;;;15.50;;
44147;SDS011;29810;55.848;37.368;2023-03-08T06:46:33;29.67;;;17.23;;
44147;SDS011;29810;55.848;37.368;2023-03-08T06:49:34;30.35;;;17.98;;
44147;SDS011;29810;55.848;37.368;2023-03-08T06:52:36;31.50;;;17.92;;
44147;SDS011;29810;55.848;37.368;2023-03-08T06:55:38;29.87;;;17.33;;
44147;SDS011;29810;55.848;37.368;2023-03-08T06:58:41;28.75;;;17.20;;
44147;SDS011;29810;55.848;37.368;2023-03-08T07:01:43;32.70;;;17.37;;
44147;SDS011;29810;55.848;37.368;2023-03-08T07:04:45;32.55;;;19.17;;
44147;SDS011;29810;55.848;37.368;2023-03-08T07:07:46;30.23;;;19.23;;
44147;SDS011;29810;55.848;37.368;2023-03-08T07:10:49;30.15;;;18.27;;
44147;SDS011;29810;55.848;37.368;2023-03-08T07:13:50;29.10;;;18.90;;
44147;SDS011;29810;55.848;37.368;2023-03-08T07:16:52;26.48;;;16.45;;
44147;SDS011;29810;55.848;37.368;2023-03-08T07:19:53;21.87;;;14.55;;
44147;SDS011;29810;55.848;37.368;2023-03-08T07:22:56;20.95;;;13.48;;
44147;SDS011;29810;55.848;37.368;2023-03-08T07:26:05;18.48;;;12.70;;
44147;SDS011;29810;55.848;37.368;2023-03-08T07:29:07;15.75;;;11.12;;
44147;SDS011;29810;55.848;37.368;2023-03-08T07:32:09;16.48;;;10.82;;
44147;SDS011;29810;55.848;37.368;2023-03-08T07:35:11;13.88;;;10.65;;
44147;SDS011;29810;55.848;37.368;2023-03-08T07:38:16;13.25;;;10.13;;
44147;SDS011;29810;55.848;37.368;2023-03-08T07:41:18;15.30;;;10.43;;
44147;SDS011;29810;55.848;37.368;2023-03-08T07:44:20;13.05;;;10.27;;
44147;SDS011;29810;55.848;37.368;2023-03-08T07:47:21;13.85;;;10.68;;
44147;SDS011;29810;55.848;37.368;2023-03-08T07:50:24;13.93;;;10.55;;
44147;SDS011;29810;55.848;37.368;2023-03-08T07:53:26;14.23;;;10.20;;
44147;SDS011;29810;55.848;37.368;2023-03-08T07:56:31;13.60;;;9.93;;
44147;SDS011;29810;55.848;37.368;2023-03-08T07:59:33;12.55;;;9.65;;
44147;SDS011;29810;55.848;37.368;2023-03-08T08:02:35;13.15;;;9.18;;
44147;SDS011;29810;55.848;37.368;2023-03-08T08:05:37;12.18;;;9.05;;
44147;SDS011;29810;55.848;37.368;2023-03-08T08:08:38;13.43;;;9.27;;
44147;SDS011;29810;55.848;37.368;2023-03-08T08:11:41;13.20;;;8.85;;
44147;SDS011;29810;55.848;37.368;2023-03-08T08:14:42;13.45;;;9.60;;
44147;SDS011;29810;55.848;37.368;2023-03-08T08:17:44;11.18;;;8.82;;
44147;SDS011;29810;55.848;37.368;2023-03-08T08:20:45;12.20;;;8.90;;
44147;SDS011;29810;55.848;37.368;2023-03-08T08:23:47;10.32;;;8.32;;
44147;SDS011;29810;55.848;37.368;2023-03-08T08:26:49;12.00;;;8.32;;
44147;SDS011;29810;55.848;37.368;2023-03-08T08:29:52;11.70;;;9.00;;
44147;SDS011;29810;55.848;37.368;2023-03-08T08:32:53;11.98;;;8.35;;
44147;SDS011;29810;55.848;37.368;2023-03-08T08:35:55;12.40;;;8.85;;
44147;SDS011;29810;55.848;37.368;2023-03-08T08:38:57;12.50;;;8.55;;
44147;SDS011;29810;55.848;37.368;2023-03-08T08:41:59;12.55;;;8.43;;
44147;SDS011;29810;55.848;37.368;2023-03-08T08:45:01;13.40;;;9.15;;
44147;SDS011;29810;55.848;37.368;2023-03-08T08:48:04;10.43;;;8.65;;
44147;SDS011;29810;55.848;37.368;2023-03-08T08:51:06;11.32;;;8.98;;
44147;SDS011;29810;55.848;37.368;2023-03-08T08:54:09;13.30;;;8.93;;
44147;SDS011;29810;55.848;37.368;2023-03-08T08:57:11;12.05;;;8.80;;
44147;SDS011;29810;55.848;37.368;2023-03-08T09:00:13;12.95;;;9.65;;
44147;SDS011;29810;55.848;37.368;2023-03-08T09:03:15;13.62;;;9.73;;
44147;SDS011;29810;55.848;37.368;2023-03-08T09:06:18;12.10;;;9.05;;
44147;SDS011;29810;55.848;37.368;2023-03-08T09:09:23;14.77;;;9.70;;
44147;SDS011;29810;55.848;37.368;2023-03-08T09:12:28;14.85;;;9.93;;
44147;SDS011;29810;55.848;37.368;2023-03-08T09:15:30;14.05;;;10.32;;
44147;SDS011;29810;55.848;37.368;2023-03-08T09:18:31;12.70;;;8.95;;
44147;SDS011;29810;55.848;37.368;2023-03-08T09:21:33;12.13;;;10.13;;
44147;SDS011;29810;55.848;37.368;2023-03-08T09:24:35;13.48;;;10.35;;
44147;SDS011;29810;55.848;37.368;2023-03-08T09:27:36;13.40;;;9.85;;
44147;SDS011;29810;55.848;37.368;2023-03-08T09:30:39;13.98;;;9.82;;
44147;SDS011;29810;55.848;37.368;2023-03-08T09:33:41;14.45;;;10.50;;
44147;SDS011;29810;55.848;37.368;2023-03-08T09:36:48;16.80;;;10.18;;
44147;SDS011;29810;55.848;37.368;2023-03-08T09:39:50;12.98;;;10.27;;
44147;SDS011;29810;55.848;37.368;2023-03-08T09:42:52;14.77;;;10.05;;
44147;SDS011;29810;55.848;37.368;2023-03-08T09:46:02;13.62;;;10.05;;
44147;SDS011;29810;55.848;37.368;2023-03-08T09:49:05;13.20;;;10.02;;
44147;SDS011;29810;55.848;37.368;2023-03-08T09:55:42;11.93;;;9.25;;
44147;SDS011;29810;55.848;37.368;2023-03-08T09:58:55;13.20;;;9.30;;
44147;SDS011;29810;55.848;37.368;2023-03-08T10:06:00;12.70;;;8.40;;
44147;SDS011;29810;55.848;37.368;2023-03-08T10:09:14;11.45;;;8.38;;
44147;SDS011;29810;55.848;37.368;2023-03-08T10:15:51;11.32;;;8.82;;
44147;SDS011;29810;55.848;37.368;2023-03-08T10:19:04;11.20;;;8.95;;
44147;SDS011;29810;55.848;37.368;2023-03-08T10:22:28;13.93;;;8.95;;
44147;SDS011;29810;55.848;37.368;2023-03-08T10:25:32;11.10;;;9.02;;
44147;SDS011;29810;55.848;37.368;2023-03-08T10:28:40;11.12;;;9.13;;
44147;SDS011;29810;55.848;37.368;2023-03-08T10:31:42;11.48;;;8.93;;
44147;SDS011;29810;55.848;37.368;2023-03-08T10:34:46;12.32;;;9.30;;
44147;SDS011;29810;55.848;37.368;2023-03-08T10:37:49;13.55;;;10.32;;
44147;SDS011;29810;55.848;37.368;2023-03-08T10:44:03;14.10;;;10.30;;
44147;SDS011;29810;55.848;37.368;2023-03-08T10:47:18;13.77;;;10.63;;
44147;SDS011;29810;55.848;37.368;2023-03-08T10:50:26;16.33;;;11.45;;
44147;SDS011;29810;55.848;37.368;2023-03-08T10:53:30;14.15;;;10.45;;
44147;SDS011;29810;55.848;37.368;2023-03-08T10:56:35;17.05;;;11.70;;
44147;SDS011;29810;55.848;37.368;2023-03-08T10:59:47;15.52;;;11.77;;
44147;SDS011;29810;55.848;37.368;2023-03-08T11:03:00;15.02;;;12.10;;
44147;SDS011;29810;55.848;37.368;2023-03-08T11:06:23;15.73;;;12.30;;
44147;SDS011;29810;55.848;37.368;2023-03-08T11:09:26;14.63;;;11.57;;
44147;SDS011;29810;55.848;37.368;2023-03-08T11:12:33;16.17;;;12.57;;
44147;SDS011;29810;55.848;37.368;2023-03-08T11:15:38;16.70;;;12.57;;
44147;SDS011;29810;55.848;37.368;2023-03-08T11:18:52;17.87;;;12.73;;
44147;SDS011;29810;55.848;37.368;2023-03-08T11:25:43;16.87;;;13.32;;
44147;SDS011;29810;55.848;37.368;2023-03-08T11:38:26;18.67;;;13.62;;
44147;SDS011;29810;55.848;37.368;2023-03-08T11:41:37;19.08;;;14.63;;
44147;SDS011;29810;55.848;37.368;2023-03-08T11:58:51;19.30;;;14.68;;
44147;SDS011;29810;55.848;37.368;2023-03-08T12:05:12;21.05;;;14.70;;
44147;SDS011;29810;55.848;37.368;2023-03-08T12:08:19;20.37;;;15.20;;
44147;SDS011;29810;55.848;37.368;2023-03-08T12:11:25;23.00;;;16.08;;
44147;SDS011;29810;55.848;37.368;2023-03-08T12:14:33;23.95;;;17.52;;
44147;SDS011;29810;55.848;37.368;2023-03-08T12:17:45;24.23;;;15.85;;
44147;SDS011;29810;55.848;37.368;2023-03-08T12:20:54;21.98;;;16.35;;
44147;SDS011;29810;55.848;37.368;2023-03-08T12:24:25;21.25;;;15.75;;
44147;SDS011;29810;55.848;37.368;2023-03-08T12:27:55;21.92;;;16.15;;
44147;SDS011;29810;55.848;37.368;2023-03-08T12:34:45;19.10;;;14.93;;
44147;SDS011;29810;55.848;37.368;2023-03-08T12:37:55;19.27;;;15.45;;
44147;SDS011;29810;55.848;37.368;2023-03-08T12:40:58;20.55;;;15.77;;
44147;SDS011;29810;55.848;37.368;2023-03-08T12:44:22;21.83;;;16.65;;
44147;SDS011;29810;55.848;37.368;2023-03-08T12:47:24;18.55;;;14.43;;
44147;SDS011;29810;55.848;37.368;2023-03-08T12:50:26;21.00;;;15.90;;
44147;SDS011;29810;55.848;37.368;2023-03-08T12:56:51;21.08;;;15.85;;
44147;SDS011;29810;55.848;37.368;2023-03-08T12:59:58;20.50;;;15.90;;
44147;SDS011;29810;55.848;37.368;2023-03-08T13:03:24;20.25;;;15.52;;
44147;SDS011;29810;55.848;37.368;2023-03-08T13:09:32;21.05;;;16.40;;
44147;SDS011;29810;55.848;37.368;2023-03-08T13:13:03;19.35;;;15.68;;
44147;SDS011;29810;55.848;37.368;2023-03-08T13:19:24;21.30;;;15.63;;
44147;SDS011;29810;55.848;37.368;2023-03-08T13:22:46;22.77;;;17.05;;
44147;SDS011;29810;55.848;37.368;2023-03-08T13:29:13;24.17;;;16.05;;
44147;SDS011;29810;55.848;37.368;2023-03-08T13:32:18;23.25;;;17.12;;
44147;SDS011;29810;55.848;37.368;2023-03-08T13:35:22;22.87;;;17.27;;
44147;SDS011;29810;55.848;37.368;2023-03-08T13:38:25;22.02;;;16.48;;
44147;SDS011;29810;55.848;37.368;2023-03-08T13:41:41;23.83;;;17.65;;
44147;SDS011;29810;55.848;37.368;2023-03-08T13:44:45;24.15;;;17.98;;
44147;SDS011;29810;55.848;37.368;2023-03-08T13:47:47;23.52;;;17.50;;
44147;SDS011;29810;55.848;37.368;2023-03-08T13:50:50;24.63;;;17.02;;
44147;SDS011;29810;55.848;37.368;2023-03-08T13:53:53;25.25;;;17.55;;
44147;SDS011;29810;55.848;37.368;2023-03-08T13:56:56;24.15;;;18.55;;
44147;SDS011;29810;55.848;37.368;2023-03-08T14:00:20;24.58;;;17.55;;
44147;SDS011;29810;55.848;37.368;2023-03-08T14:03:26;22.23;;;17.00;;
44147;SDS011;29810;55.848;37.368;2023-03-08T14:06:30;24.40;;;17.17;;
44147;SDS011;29810;55.848;37.368;2023-03-08T14:09:37;23.67;;;17.87;;
44147;SDS011;29810;55.848;37.368;2023-03-08T14:12:39;25.12;;;17.52;;
44147;SDS011;29810;55.848;37.368;2023-03-08T14:15:48;26.15;;;18.52;;
44147;SDS011;29810;55.848;37.368;2023-03-08T14:18:53;26.02;;;18.02;;
44147;SDS011;29810;55.848;37.368;2023-03-08T14:24:57;25.65;;;18.17;;
44147;SDS011;29810;55.848;37.368;2023-03-08T14:28:04;26.45;;;18.27;;
44147;SDS011;29810;55.848;37.368;2023-03-08T14:35:02;26.40;;;19.73;;
44147;SDS011;29810;55.848;37.368;2023-03-08T14:38:23;23.27;;;16.05;;
44147;SDS011;29810;55.848;37.368;2023-03-08T14:41:28;23.92;;;17.25;;
44147;SDS011;29810;55.848;37.368;2023-03-08T14:44:35;24.15;;;17.52;;
44147;SDS011;29810;55.848;37.368;2023-03-08T14:47:37;25.98;;;17.92;;
44147;SDS011;29810;55.848;37.368;2023-03-08T14:50:38;24.20;;;17.92;;
44147;SDS011;29810;55.848;37.368;2023-03-08T14:53:55;25.83;;;18.17;;
44147;SDS011;29810;55.848;37.368;2023-03-08T14:57:18;24.67;;;17.37;;
44147;SDS011;29810;55.848;37.368;2023-03-08T15:00:23;27.13;;;18.83;;
44147;SDS011;29810;55.848;37.368;2023-03-08T15:03:28;25.88;;;17.77;;
44147;SDS011;29810;55.848;37.368;2023-03-08T15:06:35;25.45;;;19.15;;
44147;SDS011;29810;55.848;37.368;2023-03-08T15:09:39;26.83;;;18.83;;
44147;SDS011;29810;55.848;37.368;2023-03-08T15:12:41;26.35;;;19.15;;
44147;SDS011;29810;55.848;37.368;2023-03-08T15:15:42;27.52;;;18.85;;
44147;SDS011;29810;55.848;37.368;2023-03-08T15:18:45;26.67;;;18.95;;
44147;SDS011;29810;55.848;37.368;2023-03-08T15:21:46;26.08;;;17.48;;
44147;SDS011;29810;55.848;37.368;2023-03-08T15:24:48;26.95;;;19.67;;
44147;SDS011;29810;55.848;37.368;2023-03-08T15:27:50;27.08;;;19.98;;
44147;SDS011;29810;55.848;37.368;2023-03-08T15:30:52;27.70;;;19.17;;
44147;SDS011;29810;55.848;37.368;2023-03-08T15:33:54;27.02;;;19.33;;
44147;SDS011;29810;55.848;37.368;2023-03-08T15:36:56;26.27;;;17.87;;
44147;SDS011;29810;55.848;37.368;2023-03-08T15:39:57;31.25;;;20.37;;
44147;SDS011;29810;55.848;37.368;2023-03-08T15:42:59;29.90;;;20.50;;
44147;SDS011;29810;55.848;37.368;2023-03-08T15:46:21;29.30;;;19.83;;
44147;SDS011;29810;55.848;37.368;2023-03-08T15:49:22;28.92;;;20.45;;
44147;SDS011;29810;55.848;37.368;2023-03-08T15:52:25;28.62;;;20.80;;
44147;SDS011;29810;55.848;37.368;2023-03-08T15:55:28;28.27;;;20.73;;
44147;SDS011;29810;55.848;37.368;2023-03-08T15:58:30;31.17;;;20.88;;
44147;SDS011;29810;55.848;37.368;2023-03-08T16:01:32;28.35;;;19.55;;
44147;SDS011;29810;55.848;37.368;2023-03-08T16:04:35;30.58;;;20.35;;
44147;SDS011;29810;55.848;37.368;2023-03-08T16:07:36;29.52;;;21.02;;
44147;SDS011;29810;55.848;37.368;2023-03-08T16:10:38;30.50;;;20.73;;
44147;SDS011;29810;55.848;37.368;2023-03-08T16:13:41;31.23;;;20.40;;
44147;SDS011;29810;55.848;37.368;2023-03-08T16:16:43;30.30;;;22.08;;
44147;SDS011;29810;55.848;37.368;2023-03-08T16:19:45;30.35;;;20.77;;
44147;SDS011;29810;55.848;37.368;2023-03-08T16:22:47;29.55;;;21.12;;
44147;SDS011;29810;55.848;37.368;2023-03-08T16:26:03;28.83;;;20.02;;
44147;SDS011;29810;55.848;37.368;2023-03-08T16:29:15;29.42;;;20.88;;
44147;SDS011;29810;55.848;37.368;2023-03-08T16:32:17;32.30;;;22.20;;
44147;SDS011;29810;55.848;37.368;2023-03-08T16:35:19;30.15;;;21.73;;
44147;SDS011;29810;55.848;37.368;2023-03-08T16:38:21;30.42;;;21.75;;
44147;SDS011;29810;55.848;37.368;2023-03-08T16:41:23;29.77;;;21.15;;
44147;SDS011;29810;55.848;37.368;2023-03-08T16:44:27;30.42;;;20.77;;
44147;SDS011;29810;55.848;37.368;2023-03-08T16:47:30;29.85;;;20.95;;
44147;SDS011;29810;55.848;37.368;2023-03-08T16:50:32;29.50;;;21.17;;
44147;SDS011;29810;55.848;37.368;2023-03-08T16:53:33;33.38;;;22.60;;
44147;SDS011;29810;55.848;37.368;2023-03-08T16:56:35;29.02;;;21.25;;
44147;SDS011;29810;55.848;37.368;2023-03-08T16:59:38;33.50;;;23.45;;
44147;SDS011;29810;55.848;37.368;2023-03-08T17:02:41;32.03;;;21.12;;
44147;SDS011;29810;55.848;37.368;2023-03-08T17:09:14;30.23;;;21.65;;
44147;SDS011;29810;55.848;37.368;2023-03-08T17:12:16;29.20;;;21.33;;
44147;SDS011;29810;55.848;37.368;2023-03-08T17:15:19;29.58;;;21.25;;
44147;SDS011;29810;55.848;37.368;2023-03-08T17:18:21;30.58;;;21.80;;
44147;SDS011;29810;55.848;37.368;2023-03-08T17:21:25;31.17;;;21.00;;
44147;SDS011;29810;55.848;37.368;2023-03-08T17:24:27;28.08;;;19.98;;
44147;SDS011;29810;55.848;37.368;2023-03-08T17:27:31;28.08;;;20.62;;
44147;SDS011;29810;55.848;37.368;2023-03-08T17:30:33;28.35;;;19.87;;
44147;SDS011;29810;55.848;37.368;2023-03-08T17:33:34;28.92;;;19.85;;
44147;SDS011;29810;55.848;37.368;2023-03-08T17:36:37;26.35;;;19.62;;
44147;SDS011;29810;55.848;37.368;2023-03-08T17:39:38;25.52;;;18.87;;
44147;SDS011;29810;55.848;37.368;2023-03-08T17:42:44;24.25;;;17.92;;
44147;SDS011;29810;55.848;37.368;2023-03-08T17:45:57;26.27;;;19.15;;
44147;SDS011;29810;55.848;37.368;2023-03-08T17:49:00;27.08;;;18.02;;
44147;SDS011;29810;55.848;37.368;2023-03-08T17:52:01;24.55;;;18.23;;
44147;SDS011;29810;55.848;37.368;2023-03-08T17:55:03;26.48;;;17.25;;
44147;SDS011;29810;55.848;37.368;2023-03-08T17:58:05;26.50;;;17.85;;
44147;SDS011;29810;55.848;37.368;2023-03-08T18:04:11;23.33;;;16.77;;
44147;SDS011;29810;55.848;37.368;2023-03-08T18:07:13;23.15;;;17.10;;
44147;SDS011;29810;55.848;37.368;2023-03-08T18:10:17;22.60;;;16.80;;
44147;SDS011;29810;55.848;37.368;2023-03-08T18:13:18;22.30;;;17.05;;
44147;SDS011;29810;55.848;37.368;2023-03-08T18:16:23;21.90;;;16.08;;
44147;SDS011;29810;55.848;37.368;2023-03-08T18:19:24;21.58;;;14.57;;
44147;SDS011;29810;55.848;37.368;2023-03-08T18:22:26;20.62;;;15.38;;
44147;SDS011;29810;55.848;37.368;2023-03-08T18:25:27;19.05;;;14.57;;
44147;SDS011;29810;55.848;37.368;2023-03-08T18:28:29;20.00;;;14.95;;
44147;SDS011;29810;55.848;37.368;2023-03-08T18:31:32;19.23;;;14.85;;
44147;SDS011;29810;55.848;37.368;2023-03-08T18:34:37;19.67;;;14.65;;
44147;SDS011;29810;55.848;37.368;2023-03-08T18:37:38;18.00;;;13.65;;
44147;SDS011;29810;55.848;37.368;2023-03-08T18:40:41;20.23;;;15.60;;
44147;SDS011;29810;55.848;37.368;2023-03-08T18:43:43;17.23;;;13.60;;
44147;SDS011;29810;55.848;37.368;2023-03-08T18:46:47;16.42;;;12.98;;
44147;SDS011;29810;55.848;37.368;2023-03-08T18:49:49;18.27;;;13.88;;
44147;SDS011;29810;55.848;37.368;2023-03-08T18:52:53;17.30;;;13.10;;
44147;SDS011;29810;55.848;37.368;2023-03-08T18:55:59;16.77;;;12.75;;
44147;SDS011;29810;55.848;37.368;2023-03-08T18:59:02;16.83;;;12.32;;
44147;SDS011;29810;55.848;37.368;2023-03-08T19:02:05;15.95;;;12.48;;